createdAt,value
2022-12-09T00:01:31.937Z,114.85
2022-12-09T00:04:00.566Z,114.85
2022-12-09T00:06:30.874Z,107.00
2022-12-09T00:08:59.983Z,122.85
2022-12-09T00:11:28.887Z,132.95
2022-12-09T00:13:58.665Z,132.43
2022-12-09T00:16:28.190Z,138.27
2022-12-09T00:18:58.506Z,147.00
2022-12-09T00:21:29.143Z,121.88
2022-12-09T00:23:58.707Z,134.40
2022-12-09T00:26:28.580Z,133.75
2022-12-09T00:28:57.679Z,143.35
2022-12-09T00:31:27.864Z,146.82
2022-12-09T00:34:00.005Z,141.05
2022-12-09T00:36:28.934Z,143.18
2022-12-09T00:38:58.657Z,122.68
2022-12-09T00:41:28.319Z,147.52
2022-12-09T00:43:57.296Z,153.80
2022-12-09T00:46:25.984Z,145.35
2022-12-09T00:48:54.818Z,143.75
2022-12-09T00:51:25.851Z,128.90
2022-12-09T00:53:55.923Z,146.27
2022-12-09T00:56:26.463Z,139.55
2022-12-09T00:58:54.987Z,139.73
2022-12-09T01:01:23.816Z,124.93
2022-12-09T01:03:52.758Z,124.20
2022-12-09T01:06:25.064Z,151.90
2022-12-09T01:08:53.852Z,149.70
2022-12-09T01:11:23.943Z,142.35
2022-12-09T01:13:53.074Z,150.05
2022-12-09T01:16:23.361Z,157.60
2022-12-09T01:18:52.763Z,152.95
2022-12-09T01:21:21.342Z,164.38
2022-12-09T01:23:51.378Z,167.48
2022-12-09T01:26:20.262Z,157.48
2022-12-09T01:28:52.637Z,142.75
2022-12-09T01:31:22.916Z,137.25
2022-12-09T01:33:51.802Z,120.57
2022-12-09T01:36:22.698Z,133.73
2022-12-09T01:38:53.182Z,150.55
2022-12-09T01:41:23.263Z,160.73
2022-12-09T01:44:08.221Z,177.18
2022-12-09T01:46:36.872Z,169.07
2022-12-09T01:49:05.861Z,152.18
2022-12-09T01:51:34.513Z,143.90
2022-12-09T01:54:04.473Z,157.30
2022-12-09T01:56:35.979Z,163.38
2022-12-09T01:59:06.498Z,169.70
2022-12-09T02:01:36.000Z,140.40
2022-12-09T02:04:04.885Z,139.75
2022-12-09T02:06:33.836Z,156.38
2022-12-09T02:09:03.728Z,157.20
2022-12-09T02:11:42.639Z,151.50
2022-12-09T02:14:16.807Z,151.63
2022-12-09T02:16:52.239Z,153.70
2022-12-09T02:19:31.708Z,150.57
2022-12-09T02:22:01.265Z,151.93
2022-12-09T02:24:39.954Z,145.38
2022-12-09T02:27:12.722Z,144.43
2022-12-09T02:30:01.401Z,140.05
2022-12-09T02:32:46.117Z,119.72
2022-12-09T02:35:21.435Z,139.18
2022-12-09T02:37:53.426Z,158.85
2022-12-09T02:40:24.227Z,159.48
2022-12-09T02:42:53.249Z,151.65
2022-12-09T02:45:22.118Z,154.77
2022-12-09T02:47:52.785Z,164.63
2022-12-09T02:50:25.374Z,174.77
2022-12-09T02:52:55.090Z,161.23
2022-12-09T02:55:24.861Z,147.32
2022-12-09T02:57:56.386Z,139.60
2022-12-09T03:00:25.134Z,152.85
2022-12-09T03:02:57.901Z,156.48
2022-12-09T03:05:38.392Z,168.85
2022-12-09T03:08:16.560Z,162.80
2022-12-09T03:10:49.651Z,154.65
2022-12-09T03:13:23.838Z,133.82
2022-12-09T03:15:56.129Z,144.07
2022-12-09T03:18:26.749Z,141.10
2022-12-09T03:20:56.735Z,158.18
2022-12-09T03:23:28.412Z,139.20
2022-12-09T03:25:57.412Z,191.13
2022-12-09T03:28:30.637Z,182.82
2022-12-09T03:31:01.484Z,175.02
2022-12-09T03:33:30.879Z,152.82
2022-12-09T03:36:04.100Z,144.45
2022-12-09T03:38:34.419Z,150.43
2022-12-09T03:41:06.698Z,144.93
2022-12-09T03:43:37.415Z,149.18
2022-12-09T03:46:06.460Z,149.50
2022-12-09T03:48:35.181Z,161.23
2022-12-09T03:51:09.275Z,156.88
2022-12-09T03:53:41.708Z,158.30
2022-12-09T03:56:15.336Z,146.43
2022-12-09T03:58:45.234Z,148.23
2022-12-09T04:01:14.540Z,151.02
2022-12-09T04:03:46.236Z,149.00
2022-12-09T04:06:16.563Z,167.70
2022-12-09T04:08:45.141Z,148.00
2022-12-09T04:11:13.679Z,159.95
2022-12-09T04:13:42.618Z,152.75
2022-12-09T04:16:11.179Z,169.65
2022-12-09T04:18:40.020Z,176.77
2022-12-09T04:21:09.780Z,171.18
2022-12-09T04:23:43.258Z,170.93
2022-12-09T04:26:17.781Z,167.23
2022-12-09T04:28:46.186Z,161.10
2022-12-09T04:31:15.946Z,150.07
2022-12-09T04:33:45.756Z,162.00
2022-12-09T04:36:16.629Z,146.23
2022-12-09T04:38:47.320Z,147.13
2022-12-09T04:41:16.942Z,150.25
2022-12-09T04:43:45.707Z,147.98
2022-12-09T04:46:16.282Z,151.07
2022-12-09T04:48:45.109Z,150.40
2022-12-09T04:51:15.566Z,164.05
2022-12-09T04:53:45.769Z,204.02
2022-12-09T04:56:15.921Z,168.15
2022-12-09T04:58:44.988Z,146.02
2022-12-09T05:01:17.689Z,163.30
2022-12-09T05:03:50.210Z,157.35
2022-12-09T05:06:20.007Z,149.07
2022-12-09T05:08:50.591Z,161.82
2022-12-09T05:11:19.849Z,143.23
2022-12-09T05:13:48.631Z,161.48
2022-12-09T05:16:18.364Z,163.38
2022-12-09T05:18:48.929Z,179.35
2022-12-09T05:21:20.155Z,154.95
2022-12-09T05:23:50.653Z,179.93
2022-12-09T05:26:22.017Z,188.50
2022-12-09T05:28:51.080Z,192.07
2022-12-09T05:31:21.261Z,164.98
2022-12-09T05:33:50.746Z,176.35
2022-12-09T05:36:21.135Z,160.40
2022-12-09T05:38:51.953Z,177.80
2022-12-09T05:41:20.542Z,181.13
2022-12-09T05:43:49.507Z,201.77
2022-12-09T05:46:18.549Z,211.63
2022-12-09T05:48:47.658Z,233.50
2022-12-09T05:51:19.383Z,200.48
2022-12-09T05:53:48.132Z,175.57
2022-12-09T05:56:18.890Z,158.80
2022-12-09T05:58:48.083Z,492.15
2022-12-09T06:01:17.310Z,258.23
2022-12-09T06:03:48.352Z,165.75
2022-12-09T06:06:18.795Z,169.02
2022-12-09T06:08:47.986Z,154.05
2022-12-09T06:11:20.323Z,165.18
2022-12-09T06:13:50.079Z,131.70
2022-12-09T06:16:20.708Z,151.70
2022-12-09T06:18:50.643Z,136.88
2022-12-09T06:21:20.874Z,154.70
2022-12-09T06:23:50.698Z,156.93
2022-12-09T06:26:22.310Z,150.60
2022-12-09T06:28:51.435Z,156.68
2022-12-09T06:31:20.500Z,167.48
2022-12-09T06:33:58.409Z,141.45
2022-12-09T06:36:30.023Z,126.63
2022-12-09T06:39:05.893Z,131.68
2022-12-09T06:41:37.995Z,195.50
2022-12-09T06:44:06.832Z,165.95
2022-12-09T06:46:35.389Z,155.40
2022-12-09T06:49:04.755Z,225.07
2022-12-09T06:51:33.900Z,153.85
2022-12-09T06:54:02.419Z,143.98
2022-12-09T06:56:32.686Z,158.00
2022-12-09T06:59:06.567Z,175.70
2022-12-09T07:01:35.203Z,339.77
2022-12-09T07:04:05.650Z,249.15
2022-12-09T07:06:36.327Z,137.80
2022-12-09T07:09:07.267Z,172.77
2022-12-09T07:11:36.126Z,140.90
2022-12-09T07:14:06.796Z,189.75
2022-12-09T07:16:36.001Z,156.00
2022-12-09T07:19:05.557Z,165.00
2022-12-09T07:21:35.223Z,138.35
2022-12-09T07:24:04.788Z,125.35
2022-12-09T07:26:33.703Z,120.07
2022-12-09T07:29:04.027Z,102.43
2022-12-09T07:31:34.636Z,118.18
2022-12-09T07:34:04.919Z,115.28
2022-12-09T07:36:34.684Z,131.55
2022-12-09T07:39:06.981Z,118.03
2022-12-09T07:41:35.966Z,192.90
2022-12-09T07:44:04.896Z,106.70
2022-12-09T07:46:35.067Z,91.35
2022-12-09T07:49:06.390Z,129.07
2022-12-09T07:51:35.514Z,143.00
2022-12-09T07:54:04.799Z,137.73
2022-12-09T07:56:33.662Z,118.57
2022-12-09T07:59:02.791Z,178.43
2022-12-09T08:01:32.355Z,254.38
2022-12-09T08:04:05.278Z,121.63
2022-12-09T08:06:34.419Z,128.00
2022-12-09T08:09:05.364Z,126.40
2022-12-09T08:11:35.218Z,164.60
2022-12-09T08:14:11.355Z,120.83
2022-12-09T08:16:40.952Z,135.60
2022-12-09T08:19:12.170Z,222.85
2022-12-09T08:21:41.561Z,116.57
2022-12-09T08:24:12.863Z,112.85
2022-12-09T08:26:42.027Z,109.75
2022-12-09T08:29:12.018Z,124.70
2022-12-09T08:31:43.149Z,97.07
2022-12-09T08:34:14.330Z,101.80
2022-12-09T08:36:44.294Z,100.03
2022-12-09T08:39:14.174Z,100.05
2022-12-09T08:41:43.915Z,148.60
2022-12-09T08:44:14.685Z,114.97
2022-12-09T08:46:45.590Z,106.10
2022-12-09T08:49:20.260Z,104.93
2022-12-09T08:54:18.275Z,133.43
2022-12-09T08:56:47.645Z,120.53
2022-12-09T08:59:16.990Z,167.35
2022-12-09T09:01:46.578Z,159.50
2022-12-09T09:04:19.657Z,108.63
2022-12-09T09:06:51.623Z,112.47
2022-12-09T09:09:21.730Z,133.98
2022-12-09T09:11:51.080Z,130.20
2022-12-09T09:14:19.490Z,134.80
2022-12-09T09:16:48.216Z,152.23
2022-12-09T09:19:20.515Z,141.57
2022-12-09T09:21:49.883Z,305.38
2022-12-09T09:24:20.721Z,133.65
2022-12-09T09:26:51.001Z,129.95
2022-12-09T09:29:21.328Z,161.10
2022-12-09T09:31:54.484Z,137.07
2022-12-09T09:34:26.152Z,156.52
2022-12-09T09:36:55.657Z,142.73
2022-12-09T09:39:24.785Z,279.30
2022-12-09T09:41:55.634Z,184.63
2022-12-09T09:44:27.252Z,123.80
2022-12-09T09:46:57.393Z,131.77
2022-12-09T09:49:34.653Z,141.00
2022-12-09T09:52:07.321Z,129.00
2022-12-09T09:54:36.349Z,148.70
2022-12-09T09:57:11.834Z,156.18
2022-12-09T09:59:50.187Z,110.40
2022-12-09T10:02:21.874Z,94.50
2022-12-09T10:05:00.168Z,113.05
2022-12-09T10:07:35.387Z,158.50
2022-12-09T10:10:13.254Z,95.38
2022-12-09T10:13:07.232Z,91.85
2022-12-09T10:15:43.302Z,123.75
2022-12-09T10:18:18.351Z,122.28
2022-12-09T10:20:48.834Z,109.45
2022-12-09T10:23:18.616Z,108.88
2022-12-09T10:25:50.103Z,113.47
2022-12-09T10:28:22.733Z,124.15
2022-12-09T10:30:52.636Z,121.40
2022-12-09T10:33:32.396Z,242.98
2022-12-09T10:36:02.883Z,115.82
2022-12-09T10:38:32.410Z,108.63
2022-12-09T10:41:05.914Z,96.88
2022-12-09T10:43:35.731Z,251.05
2022-12-09T10:46:23.114Z,123.57
2022-12-09T10:49:01.675Z,144.27
2022-12-09T10:51:35.636Z,112.53
2022-12-09T10:54:06.999Z,113.03
2022-12-09T10:56:37.742Z,187.40
2022-12-09T10:59:17.999Z,126.63
2022-12-09T11:01:52.792Z,146.18
2022-12-09T11:04:27.319Z,138.63
2022-12-09T11:07:00.838Z,210.68
2022-12-09T11:09:32.081Z,139.73
2022-12-09T11:12:02.248Z,190.77
2022-12-09T11:14:35.132Z,128.10
2022-12-09T11:17:17.070Z,130.30
2022-12-09T11:19:48.200Z,111.22
2022-12-09T11:22:33.778Z,179.70
2022-12-09T11:25:23.779Z,115.13
2022-12-09T11:27:54.595Z,131.05
2022-12-09T11:30:27.118Z,96.50
2022-12-09T11:33:08.695Z,101.45
2022-12-09T11:36:01.876Z,132.95
2022-12-09T11:38:37.253Z,107.80
2022-12-09T11:41:41.615Z,104.03
2022-12-09T11:44:26.651Z,144.20
2022-12-09T11:49:28.643Z,126.93
2022-12-09T11:52:04.691Z,128.50
2022-12-09T11:54:39.257Z,123.82
2022-12-09T11:57:10.852Z,146.00
2022-12-09T11:59:46.981Z,97.40
2022-12-09T12:02:23.985Z,91.43
2022-12-09T12:04:55.900Z,135.68
2022-12-09T12:07:35.296Z,113.00
2022-12-09T12:10:11.190Z,134.70
2022-12-09T12:12:44.520Z,158.80
2022-12-09T12:15:20.950Z,123.32
2022-12-09T12:17:52.614Z,155.40
2022-12-09T12:20:21.239Z,180.73
2022-12-09T12:23:05.451Z,137.80
2022-12-09T12:25:45.965Z,129.93
2022-12-09T12:28:31.237Z,186.93
2022-12-09T12:31:07.733Z,186.05
2022-12-09T12:36:41.669Z,184.27
2022-12-09T12:39:15.660Z,133.30
2022-12-09T12:41:51.258Z,249.25
2022-12-09T12:44:58.248Z,122.63
2022-12-09T12:47:30.730Z,147.95
2022-12-09T12:50:10.096Z,144.98
2022-12-09T12:52:56.014Z,117.70
2022-12-09T12:55:44.823Z,151.07
2022-12-09T12:58:28.975Z,172.52
2022-12-09T13:01:02.182Z,120.97
2022-12-09T13:03:37.907Z,97.72
2022-12-09T13:06:06.974Z,102.38
2022-12-09T13:08:38.749Z,177.20
2022-12-09T13:11:10.126Z,126.35
2022-12-09T13:13:44.962Z,111.32
2022-12-09T13:16:19.248Z,94.82
2022-12-09T13:18:49.263Z,135.70
2022-12-09T13:21:18.305Z,103.88
2022-12-09T13:23:58.691Z,99.97
2022-12-09T13:26:37.870Z,101.50
2022-12-09T13:29:18.281Z,101.00
2022-12-09T13:31:52.123Z,147.07
2022-12-09T13:34:28.274Z,88.45
2022-12-09T13:36:56.711Z,117.40
2022-12-09T13:39:58.989Z,141.00
2022-12-09T13:43:01.373Z,120.32
2022-12-09T13:45:35.837Z,124.75
2022-12-09T13:48:13.324Z,143.23
2022-12-09T13:50:57.377Z,140.20
2022-12-09T13:53:30.773Z,163.52
2022-12-09T13:56:01.576Z,130.48
2022-12-09T13:58:51.966Z,263.63
2022-12-09T14:01:25.651Z,303.83
2022-12-09T14:04:06.316Z,188.37
2022-12-09T14:06:39.978Z,146.40
2022-12-09T14:09:23.272Z,185.73
2022-12-09T14:11:52.932Z,170.10
2022-12-09T14:14:58.070Z,190.23
2022-12-09T14:18:12.572Z,194.93
2022-12-09T14:20:42.034Z,196.98
2022-12-09T14:23:20.155Z,382.00
2022-12-09T14:26:05.208Z,199.65
2022-12-09T14:31:53.140Z,260.42
2022-12-09T14:34:31.159Z,333.27
2022-12-09T14:37:25.074Z,266.77
2022-12-09T14:39:59.756Z,303.23
2022-12-09T14:45:10.277Z,294.85
2022-12-09T14:47:41.932Z,372.52
2022-12-09T14:50:16.309Z,277.20
2022-12-09T14:52:55.025Z,209.50
2022-12-09T14:55:26.288Z,220.73
2022-12-09T14:57:56.580Z,238.52
2022-12-09T15:00:35.552Z,251.82
2022-12-09T15:05:59.655Z,263.98
2022-12-09T15:08:35.314Z,307.00
2022-12-09T15:11:07.151Z,290.98
2022-12-09T15:13:38.153Z,356.10
2022-12-09T15:16:10.312Z,383.98
2022-12-09T15:18:40.283Z,374.60
2022-12-09T15:21:10.323Z,413.40
2022-12-09T15:23:40.499Z,395.83
2022-12-09T15:26:21.613Z,329.38
2022-12-09T15:28:52.000Z,342.35
2022-12-09T15:31:22.843Z,348.13
2022-12-09T15:33:53.580Z,367.17
2022-12-09T15:36:25.704Z,371.13
2022-12-09T15:38:57.245Z,414.90
2022-12-09T15:41:45.703Z,369.23
2022-12-09T15:44:17.323Z,394.40
2022-12-09T15:46:47.330Z,380.58
2022-12-09T15:49:19.576Z,377.80
2022-12-09T15:51:51.528Z,398.55
2022-12-09T15:54:23.964Z,459.10
2022-12-09T15:56:56.706Z,385.73
2022-12-09T15:59:27.351Z,475.33
2022-12-09T16:01:58.188Z,437.63
2022-12-09T16:04:29.241Z,396.52
2022-12-09T16:07:06.391Z,430.77
2022-12-09T16:09:34.921Z,457.60
2022-12-09T16:12:03.391Z,441.58
2022-12-09T16:14:43.328Z,595.05
2022-12-09T16:17:20.928Z,394.73
2022-12-09T16:19:49.588Z,454.80
2022-12-09T16:22:24.989Z,428.70
2022-12-09T16:25:14.362Z,498.38
2022-12-09T16:27:48.589Z,492.77
2022-12-09T16:30:21.060Z,411.53
2022-12-09T16:32:51.746Z,528.08
2022-12-09T16:35:24.018Z,501.13
2022-12-09T16:38:20.707Z,480.58
2022-12-09T16:41:11.360Z,531.33
2022-12-09T16:43:55.751Z,502.63
2022-12-09T16:46:39.071Z,499.35
2022-12-09T16:49:10.871Z,584.90
2022-12-09T16:51:40.108Z,465.40
2022-12-09T16:54:20.182Z,563.40
2022-12-09T16:56:49.845Z,526.47
2022-12-09T16:59:18.350Z,501.13
2022-12-09T17:01:46.880Z,533.53
2022-12-09T17:04:17.240Z,478.55
2022-12-09T17:06:45.834Z,503.35
2022-12-09T17:09:15.681Z,493.50
2022-12-09T17:11:49.208Z,489.23
2022-12-09T17:14:20.361Z,540.77
2022-12-09T17:16:48.876Z,516.90
2022-12-09T17:19:17.661Z,515.70
2022-12-09T17:21:46.062Z,533.95
2022-12-09T17:24:16.876Z,488.83
2022-12-09T17:26:45.330Z,482.38
2022-12-09T17:29:13.838Z,525.22
2022-12-09T17:31:42.509Z,529.55
2022-12-09T17:34:11.005Z,526.40
2022-12-09T17:36:39.402Z,541.20
2022-12-09T17:39:07.898Z,507.75
2022-12-09T17:41:37.987Z,525.05
2022-12-09T17:44:06.745Z,517.83
2022-12-09T17:46:35.311Z,553.55
2022-12-09T17:49:04.224Z,500.50
2022-12-09T17:51:36.359Z,509.48
2022-12-09T17:54:05.434Z,488.67
2022-12-09T17:56:34.291Z,561.75
2022-12-09T17:59:07.415Z,572.53
2022-12-09T18:01:38.159Z,516.30
2022-12-09T18:04:10.441Z,503.70
2022-12-09T18:06:44.079Z,479.60
2022-12-09T18:09:24.557Z,562.80
2022-12-09T18:12:07.727Z,513.63
2022-12-09T18:14:37.670Z,540.42
2022-12-09T18:17:08.752Z,494.48
2022-12-09T18:20:02.794Z,547.33
2022-12-09T18:22:44.246Z,479.58
2022-12-09T18:25:12.858Z,495.00
2022-12-09T18:27:41.314Z,509.20
2022-12-09T18:30:12.602Z,514.78
2022-12-09T18:32:41.179Z,494.45
2022-12-09T18:35:10.344Z,487.05
2022-12-09T18:37:38.925Z,496.98
2022-12-09T18:40:09.078Z,504.77
2022-12-09T18:42:37.754Z,510.52
2022-12-09T18:45:06.923Z,520.72
2022-12-09T18:47:37.053Z,524.95
2022-12-09T18:50:06.558Z,514.03
2022-12-09T18:52:35.253Z,530.60
2022-12-09T18:55:03.626Z,526.63
2022-12-09T18:57:32.077Z,507.63
2022-12-09T19:00:00.618Z,509.20
2022-12-09T19:02:29.227Z,485.70
2022-12-09T19:04:59.378Z,486.98
2022-12-09T19:07:32.081Z,488.77
2022-12-09T19:10:01.004Z,506.77
2022-12-09T19:12:46.461Z,498.35
2022-12-09T19:15:16.314Z,459.45
2022-12-09T19:17:46.047Z,515.30
2022-12-09T19:20:16.104Z,516.42
2022-12-09T19:22:44.557Z,494.42
2022-12-09T19:25:13.491Z,507.95
2022-12-09T19:27:41.909Z,506.95
2022-12-09T19:30:11.235Z,487.92
2022-12-09T19:32:55.454Z,512.95
2022-12-09T19:35:25.369Z,490.85
2022-12-09T19:37:59.550Z,513.17
2022-12-09T19:40:30.155Z,503.73
2022-12-09T19:42:58.570Z,506.75
2022-12-09T19:45:27.472Z,513.53
2022-12-09T19:47:56.422Z,494.85
2022-12-09T19:50:26.214Z,477.58
2022-12-09T19:52:54.592Z,496.80
2022-12-09T19:55:22.999Z,444.73
2022-12-09T19:57:51.423Z,494.95
2022-12-09T20:00:20.467Z,460.88
2022-12-09T20:02:50.821Z,461.25
2022-12-09T20:05:19.558Z,418.15
2022-12-09T20:07:49.663Z,460.38
2022-12-09T20:10:18.125Z,470.67
2022-12-09T20:12:46.529Z,458.98
2022-12-09T20:15:15.131Z,486.67
2022-12-09T20:17:43.473Z,439.73
2022-12-09T20:20:12.756Z,445.90
2022-12-09T20:22:41.284Z,483.60
2022-12-09T20:25:11.451Z,465.45
2022-12-09T20:27:39.899Z,424.98
2022-12-09T20:30:10.086Z,431.85
2022-12-09T20:32:38.781Z,469.00
2022-12-09T20:35:08.912Z,436.95
2022-12-09T20:37:37.951Z,436.20
2022-12-09T20:40:07.624Z,454.38
2022-12-09T20:42:37.762Z,434.98
2022-12-09T20:45:07.108Z,457.38
2022-12-09T20:47:35.758Z,454.83
2022-12-09T20:50:04.514Z,446.65
2022-12-09T20:52:33.076Z,446.95
2022-12-09T20:55:01.511Z,449.08
2022-12-09T20:57:29.880Z,440.58
2022-12-09T20:59:59.750Z,459.90
2022-12-09T21:02:28.140Z,448.35
2022-12-09T21:04:56.673Z,437.92
2022-12-09T21:07:25.189Z,448.27
2022-12-09T21:09:53.667Z,462.83
2022-12-09T21:12:22.116Z,437.75
2022-12-09T21:14:50.603Z,494.38
2022-12-09T21:17:20.843Z,437.88
2022-12-09T21:19:49.286Z,434.85
2022-12-09T21:22:17.726Z,441.50
2022-12-09T21:24:47.177Z,441.42
2022-12-09T21:27:15.607Z,415.67
2022-12-09T21:29:45.101Z,387.17
2022-12-09T21:32:13.505Z,427.58
2022-12-09T21:34:43.282Z,422.65
2022-12-09T21:37:11.736Z,414.40
2022-12-09T21:39:40.166Z,414.63
2022-12-09T21:42:09.176Z,422.63
2022-12-09T21:44:37.896Z,443.10
2022-12-09T21:47:06.365Z,412.45
2022-12-09T21:49:34.734Z,424.92
2022-12-09T21:52:06.528Z,418.70
2022-12-09T21:54:35.016Z,412.50
2022-12-09T21:57:03.507Z,384.65
2022-12-09T21:59:32.279Z,386.90
2022-12-09T22:02:01.515Z,440.08
2022-12-09T22:04:30.397Z,421.67
2022-12-09T22:06:58.887Z,421.17
2022-12-09T22:09:28.705Z,398.42
2022-12-09T22:11:57.140Z,363.92
2022-12-09T22:14:25.557Z,396.58
2022-12-09T22:16:54.084Z,358.55
2022-12-09T22:19:22.542Z,408.25
2022-12-09T22:21:50.980Z,423.45
2022-12-09T22:24:20.141Z,409.52
2022-12-09T22:26:50.364Z,424.17
2022-12-09T22:29:19.235Z,472.40
2022-12-09T22:31:48.369Z,447.10
2022-12-09T22:34:18.440Z,450.38
2022-12-09T22:36:47.371Z,407.98
2022-12-09T22:39:17.881Z,422.08
2022-12-09T22:41:47.088Z,429.40
2022-12-09T22:44:19.077Z,445.90
2022-12-09T22:46:47.642Z,457.92
2022-12-09T22:49:16.796Z,498.67
2022-12-09T22:51:45.965Z,466.10
2022-12-09T22:54:15.037Z,471.83
2022-12-09T22:56:44.009Z,454.85
2022-12-09T22:59:13.580Z,446.00
2022-12-09T23:01:45.786Z,476.23
2022-12-09T23:04:15.758Z,473.52
2022-12-09T23:06:45.158Z,482.27
2022-12-09T23:09:16.518Z,440.40
2022-12-09T23:11:45.034Z,420.08
2022-12-09T23:14:13.526Z,456.77
2022-12-09T23:16:43.794Z,479.67
2022-12-09T23:19:13.705Z,443.70
2022-12-09T23:21:43.052Z,449.15
2022-12-09T23:24:13.701Z,452.77
2022-12-09T23:26:43.291Z,435.92
2022-12-09T23:29:14.861Z,436.92
2022-12-09T23:31:45.174Z,491.17
2022-12-09T23:34:14.332Z,486.63
2022-12-09T23:36:44.422Z,457.90
2022-12-09T23:39:15.229Z,470.50
2022-12-09T23:41:44.592Z,437.25
2022-12-09T23:44:14.986Z,476.13
2022-12-09T23:46:45.099Z,482.85
2022-12-09T23:49:13.784Z,472.02
2022-12-09T23:51:44.432Z,471.77
2022-12-09T23:54:14.532Z,447.70
2022-12-09T23:56:47.953Z,467.88
2022-12-09T23:59:16.822Z,440.75
